Time;durP1;ratioP1;P1;durP2;ratioP2;P2;SDS_P1;SDS_P2;PMS_P1;PMS_P2;Temp;Humidity;BMP_temperature;BMP_pressure;BME280_temperature;BME280_humidity;BME280_pressure;Samples;Min_cycle;Max_cycle;Signal;HPM_P1;HPM_P2
2022/05/12 00:00:19;;;;;;;3.85;3.20;;;;;;;;;;2075369;28;20165;-51
2022/05/12 00:01:20;;;;;;;4.20;3.53;;;;;;;;;;2075548;28;20654;-52
2022/05/12 00:02:20;;;;;;;5.70;3.60;;;;;;;;;;2075223;28;20173;-48
2022/05/12 00:03:20;;;;;;;4.38;3.05;;;;;;;;;;2075533;28;20641;-51
2022/05/12 00:04:20;;;;;;;4.00;3.17;;;;;;;;;;2075468;28;20184;-50
2022/05/12 00:05:21;;;;;;;3.85;3.00;;;;;;;;;;2076167;28;20243;-49
2022/05/12 00:06:22;;;;;;;4.25;3.45;;;;;;;;;;2073814;28;20230;-51
2022/05/12 00:07:22;;;;;;;4.57;2.97;;;;;;;;;;2067573;28;20170;-50
2022/05/12 00:08:22;;;;;;;4.68;2.80;;;;;;;;;;2072717;28;20187;-51
2022/05/12 00:09:23;;;;;;;4.00;3.03;;;;;;;;;;2074869;28;20732;-52
2022/05/12 00:10:24;;;;;;;3.30;2.92;;;;;;;;;;2073598;28;20231;-51
2022/05/12 00:11:24;;;;;;;3.05;2.83;;;;;;;;;;2082372;28;20181;-48
2022/05/12 00:12:25;;;;;;;3.63;3.00;;;;;;;;;;2083950;28;20167;-54
2022/05/12 00:13:25;;;;;;;4.30;2.55;;;;;;;;;;2075228;28;20215;-53
2022/05/12 00:14:25;;;;;;;3.03;2.67;;;;;;;;;;2074855;28;20177;-55
2022/05/12 00:15:27;;;;;;;4.05;2.90;;;;;;;;;;2084033;28;20243;-52
2022/05/12 00:16:27;;;;;;;3.80;2.92;;;;;;;;;;2084515;28;20176;-51
2022/05/12 00:17:27;;;;;;;3.35;3.13;;;;;;;;;;2067714;28;20166;-51
2022/05/12 00:18:28;;;;;;;2.92;2.72;;;;;;;;;;2067142;28;20174;-54
2022/05/12 00:19:29;;;;;;;3.00;2.70;;;;;;;;;;2066885;28;20170;-52
2022/05/12 00:20:30;;;;;;;3.35;2.90;;;;;;;;;;2067199;28;20209;-53
2022/05/12 00:21:30;;;;;;;3.25;2.95;;;;;;;;;;2066969;28;20189;-52
2022/05/12 00:22:31;;;;;;;4.97;3.03;;;;;;;;;;2067324;28;20165;-51
2022/05/12 00:23:31;;;;;;;2.90;2.70;;;;;;;;;;2076622;28;20652;-52
2022/05/12 00:24:31;;;;;;;2.85;2.65;;;;;;;;;;2075476;28;20618;-51
2022/05/12 00:25:33;;;;;;;5.88;2.53;;;;;;;;;;2075228;28;20220;-50
2022/05/12 00:26:34;;;;;;;2.75;2.58;;;;;;;;;;2074951;28;20188;-52
2022/05/12 00:27:34;;;;;;;3.25;2.90;;;;;;;;;;2074866;28;20195;-52
2022/05/12 00:28:34;;;;;;;5.00;3.00;;;;;;;;;;2066294;28;20189;-50
2022/05/12 00:29:35;;;;;;;3.85;2.75;;;;;;;;;;2066430;28;20166;-51
2022/05/12 00:30:35;;;;;;;3.90;2.58;;;;;;;;;;2074894;28;20597;-52
2022/05/12 00:31:37;;;;;;;2.47;2.28;;;;;;;;;;2075269;28;20177;-54
2022/05/12 00:32:38;;;;;;;2.42;2.33;;;;;;;;;;2075406;28;20157;-52
2022/05/12 00:33:38;;;;;;;2.13;2.03;;;;;;;;;;2075130;28;20231;-50
2022/05/12 00:34:38;;;;;;;2.55;2.35;;;;;;;;;;2065765;28;20173;-52
2022/05/12 00:35:40;;;;;;;2.53;2.25;;;;;;;;;;2065653;28;20209;-51
2022/05/12 00:36:41;;;;;;;2.42;1.92;;;;;;;;;;2074846;28;20167;-51
2022/05/12 00:37:41;;;;;;;2.45;1.90;;;;;;;;;;2065822;28;20174;-51
2022/05/12 00:38:41;;;;;;;5.47;2.22;;;;;;;;;;2066296;28;20181;-51
2022/05/12 00:39:42;;;;;;;2.30;2.10;;;;;;;;;;2066365;28;20193;-51
2022/05/12 00:40:43;;;;;;;4.03;2.22;;;;;;;;;;2066625;28;20667;-49
2022/05/12 00:41:44;;;;;;;2.30;2.00;;;;;;;;;;2075460;28;20168;-51
2022/05/12 00:42:58;;;;;;;2.63;2.42;;;;;;;;;;2075441;28;20579;-51
2022/05/12 00:44:02;;;;;;;3.60;2.50;;;;;;;;;;2074656;28;20174;-49
2022/05/12 00:45:03;;;;;;;2.30;2.10;;;;;;;;;;2075054;28;20157;-51
2022/05/12 00:46:05;;;;;;;3.50;2.05;;;;;;;;;;2069954;28;20211;-50
2022/05/12 00:47:05;;;;;;;2.45;1.83;;;;;;;;;;2070744;28;20165;-51
2022/05/12 00:48:05;;;;;;;2.63;2.08;;;;;;;;;;2075202;28;20259;-53
2022/05/12 00:49:19;;;;;;;2.92;2.30;;;;;;;;;;2075064;28;20188;-52
2022/05/12 00:50:21;;;;;;;3.40;2.15;;;;;;;;;;2083252;28;20191;-52
2022/05/12 00:51:27;;;;;;;3.22;2.45;;;;;;;;;;2083457;28;20581;-52
2022/05/12 00:52:29;;;;;;;3.15;2.45;;;;;;;;;;2075955;28;20168;-51
2022/05/12 00:53:30;;;;;;;2.83;2.08;;;;;;;;;;2075301;28;20185;-51
2022/05/12 00:54:34;;;;;;;3.85;2.60;;;;;;;;;;2075045;28;20161;-52
2022/05/12 00:55:36;;;;;;;3.88;2.08;;;;;;;;;;2076228;28;20208;-53
2022/05/12 00:56:37;;;;;;;4.40;2.42;;;;;;;;;;2076378;28;20240;-50
2022/05/12 00:57:39;;;;;;;2.42;2.20;;;;;;;;;;2076833;28;20705;-51
2022/05/12 00:58:40;;;;;;;3.97;2.63;;;;;;;;;;2076171;28;20173;-52
2022/05/12 00:59:40;;;;;;;3.10;2.30;;;;;;;;;;2076002;28;20219;-51
2022/05/12 01:00:41;;;;;;;4.38;2.42;;;;;;;;;;2075932;28;20165;-51
2022/05/12 01:01:41;;;;;;;3.83;2.22;;;;;;;;;;2075560;28;20672;-53
2022/05/12 01:02:43;;;;;;;3.78;2.47;;;;;;;;;;2075512;28;20177;-53
2022/05/12 01:03:43;;;;;;;4.38;2.50;;;;;;;;;;2075712;28;20183;-52
2022/05/12 01:04:45;;;;;;;6.40;2.20;;;;;;;;;;2074681;28;20195;-53
2022/05/12 01:05:46;;;;;;;2.83;2.30;;;;;;;;;;2072999;28;20201;-54
2022/05/12 01:06:46;;;;;;;3.63;2.25;;;;;;;;;;2066002;28;20173;-50
2022/05/12 01:07:47;;;;;;;5.18;2.38;;;;;;;;;;2058315;28;20205;-52
2022/05/12 01:08:47;;;;;;;4.15;2.67;;;;;;;;;;2066253;28;20271;-54
2022/05/12 01:09:48;;;;;;;2.83;2.40;;;;;;;;;;2075051;28;20650;-51
2022/05/12 01:10:54;;;;;;;3.97;2.15;;;;;;;;;;2074920;28;20185;-50
2022/05/12 01:11:55;;;;;;;2.08;1.92;;;;;;;;;;2066522;28;20729;-52
2022/05/12 01:12:55;;;;;;;7.00;2.33;;;;;;;;;;2066344;28;20208;-53
2022/05/12 01:14:00;;;;;;;2.03;1.90;;;;;;;;;;2075179;28;20219;-50
2022/05/12 01:15:00;;;;;;;2.70;1.75;;;;;;;;;;2066025;28;20216;-52
2022/05/12 01:16:02;;;;;;;2.40;2.20;;;;;;;;;;2066314;28;20213;-53
2022/05/12 01:17:03;;;;;;;5.85;2.10;;;;;;;;;;2066132;28;20201;-50
2022/05/12 01:18:05;;;;;;;2.17;1.55;;;;;;;;;;2066468;28;20174;-55
2022/05/12 01:19:06;;;;;;;4.32;2.13;;;;;;;;;;2075405;28;20164;-52
2022/05/12 01:20:07;;;;;;;2.65;1.90;;;;;;;;;;2074104;28;20169;-54
2022/05/12 01:21:08;;;;;;;4.32;2.22;;;;;;;;;;2074648;28;20192;-51
2022/05/12 01:22:10;;;;;;;3.30;1.80;;;;;;;;;;2066736;28;20208;-50
2022/05/12 01:23:22;;;;;;;2.42;2.15;;;;;;;;;;2066400;28;20635;-51
2022/05/12 01:24:24;;;;;;;2.40;2.10;;;;;;;;;;2074729;28;20240;-52
2022/05/12 01:25:27;;;;;;;2.55;2.00;;;;;;;;;;2065813;28;20304;-49
2022/05/12 01:26:28;;;;;;;2.05;1.73;;;;;;;;;;2066736;28;20197;-50
2022/05/12 01:27:30;;;;;;;2.20;1.98;;;;;;;;;;2075125;28;20712;-51
2022/05/12 01:28:30;;;;;;;1.90;1.63;;;;;;;;;;2075118;28;20255;-53
2022/05/12 01:29:30;;;;;;;2.25;1.55;;;;;;;;;;2066552;28;20186;-50
2022/05/12 01:30:31;;;;;;;2.30;1.85;;;;;;;;;;2066251;28;20178;-54
2022/05/12 01:31:31;;;;;;;1.85;1.75;;;;;;;;;;2075285;28;20164;-52
2022/05/12 01:32:31;;;;;;;1.90;1.77;;;;;;;;;;2075327;28;20241;-51
2022/05/12 01:33:32;;;;;;;2.42;1.90;;;;;;;;;;2074989;28;20552;-49
2022/05/12 01:34:33;;;;;;;2.15;1.83;;;;;;;;;;2074787;28;20236;-51
2022/05/12 01:35:33;;;;;;;2.60;1.63;;;;;;;;;;2075058;28;20223;-53
2022/05/12 01:36:34;;;;;;;2.97;1.70;;;;;;;;;;2066893;28;20165;-53
2022/05/12 01:37:37;;;;;;;4.03;1.70;;;;;;;;;;2066506;28;20180;-52
2022/05/12 01:38:37;;;;;;;3.60;1.85;;;;;;;;;;2074928;28;20248;-49
2022/05/12 01:39:38;;;;;;;3.35;1.77;;;;;;;;;;2065202;28;20177;-50
2022/05/12 01:40:39;;;;;;;1.65;1.52;;;;;;;;;;2065660;28;20252;-51
2022/05/12 01:41:39;;;;;;;1.63;1.52;;;;;;;;;;2066259;28;20849;-50
2022/05/12 01:42:40;;;;;;;3.45;1.92;;;;;;;;;;2074698;28;20173;-51
2022/05/12 01:43:40;;;;;;;1.88;1.77;;;;;;;;;;2075056;28;20177;-52
2022/05/12 01:44:41;;;;;;;3.22;2.22;;;;;;;;;;2074153;28;20169;-52
2022/05/12 01:45:42;;;;;;;2.45;1.60;;;;;;;;;;2074916;28;20222;-52
2022/05/12 01:46:42;;;;;;;2.35;1.80;;;;;;;;;;2074283;28;20165;-53
2022/05/12 01:47:43;;;;;;;2.88;1.70;;;;;;;;;;2073837;28;20263;-50
2022/05/12 01:48:44;;;;;;;3.10;1.77;;;;;;;;;;2065810;28;20162;-53
2022/05/12 01:49:44;;;;;;;3.40;1.92;;;;;;;;;;2069602;28;20237;-53
2022/05/12 01:50:45;;;;;;;1.63;1.52;;;;;;;;;;2082999;28;20167;-50
2022/05/12 01:51:45;;;;;;;4.63;2.05;;;;;;;;;;2081977;28;20248;-50
2022/05/12 01:52:46;;;;;;;2.15;1.83;;;;;;;;;;2068784;28;20260;-50
2022/05/12 01:53:46;;;;;;;2.30;1.85;;;;;;;;;;2075259;28;20161;-50
2022/05/12 01:54:46;;;;;;;2.72;1.88;;;;;;;;;;2073903;28;20176;-50
2022/05/12 01:55:49;;;;;;;2.50;1.70;;;;;;;;;;2074585;28;20634;-49
2022/05/12 01:56:50;;;;;;;2.72;2.03;;;;;;;;;;2074369;28;20180;-51
2022/05/12 01:57:50;;;;;;;2.60;1.67;;;;;;;;;;2073811;28;20224;-51
2022/05/12 01:58:50;;;;;;;1.73;1.52;;;;;;;;;;2074958;28;20171;-50
2022/05/12 01:59:51;;;;;;;1.88;1.67;;;;;;;;;;2074589;28;20169;-50
2022/05/12 02:00:51;;;;;;;2.70;1.80;;;;;;;;;;2075179;28;20173;-50
2022/05/12 02:01:52;;;;;;;2.35;1.63;;;;;;;;;;2074958;28;20183;-51
2022/05/12 02:02:53;;;;;;;3.42;1.70;;;;;;;;;;2074704;28;20205;-50
2022/05/12 02:03:53;;;;;;;1.80;1.70;;;;;;;;;;2075086;28;20176;-51
2022/05/12 02:04:54;;;;;;;3.60;1.60;;;;;;;;;;2074748;28;20184;-51
2022/05/12 02:05:54;;;;;;;2.72;2.05;;;;;;;;;;2071224;28;20177;-53
2022/05/12 02:06:54;;;;;;;1.90;1.80;;;;;;;;;;2050077;29;20175;-53
2022/05/12 02:07:55;;;;;;;2.65;1.85;;;;;;;;;;2049985;28;20210;-51
2022/05/12 02:08:55;;;;;;;2.33;2.10;;;;;;;;;;2074613;28;20216;-52
2022/05/12 02:09:55;;;;;;;2.78;1.70;;;;;;;;;;2066350;28;20177;-51
2022/05/12 02:10:56;;;;;;;2.55;1.58;;;;;;;;;;2057739;28;20623;-51
2022/05/12 02:11:56;;;;;;;2.90;1.95;;;;;;;;;;2065910;28;20166;-51
2022/05/12 02:12:57;;;;;;;3.10;2.05;;;;;;;;;;2075282;28;20233;-53
2022/05/12 02:13:57;;;;;;;3.13;2.00;;;;;;;;;;2065949;28;20169;-51
2022/05/12 02:14:57;;;;;;;2.33;1.90;;;;;;;;;;2065679;28;20173;-50
2022/05/12 02:15:58;;;;;;;2.47;1.60;;;;;;;;;;2065874;28;20631;-50
2022/05/12 02:16:58;;;;;;;2.72;1.98;;;;;;;;;;2066523;28;20188;-50
2022/05/12 02:17:58;;;;;;;3.83;2.05;;;;;;;;;;2066483;28;20198;-49
2022/05/12 02:18:59;;;;;;;2.47;2.17;;;;;;;;;;2065956;28;20196;-51
2022/05/12 02:19:59;;;;;;;3.00;1.73;;;;;;;;;;2066217;28;20177;-52
2022/05/12 02:20:59;;;;;;;4.22;1.92;;;;;;;;;;2075045;28;20247;-52
2022/05/12 02:22:02;;;;;;;2.10;1.70;;;;;;;;;;2072951;28;20332;-56
2022/05/12 02:23:03;;;;;;;2.30;1.55;;;;;;;;;;2069337;28;20173;-51
2022/05/12 02:24:03;;;;;;;4.53;1.73;;;;;;;;;;2070591;28;20240;-54
2022/05/12 02:25:04;;;;;;;4.22;1.75;;;;;;;;;;2074603;28;20179;-51
2022/05/12 02:26:04;;;;;;;2.00;1.88;;;;;;;;;;2075597;28;20235;-53
2022/05/12 02:27:06;;;;;;;4.05;2.42;;;;;;;;;;2075296;28;20181;-50
2022/05/12 02:28:06;;;;;;;1.63;1.48;;;;;;;;;;2072813;28;20179;-50
2022/05/12 02:29:07;;;;;;;4.55;1.88;;;;;;;;;;2072160;28;20602;-55
2022/05/12 02:30:07;;;;;;;2.30;2.10;;;;;;;;;;2073276;28;20165;-54
2022/05/12 02:31:07;;;;;;;3.17;2.10;;;;;;;;;;2072030;28;20637;-51
2022/05/12 02:32:08;;;;;;;1.83;1.73;;;;;;;;;;2075346;28;20188;-51
2022/05/12 02:33:09;;;;;;;1.83;1.73;;;;;;;;;;2071915;28;20176;-53
2022/05/12 02:34:10;;;;;;;2.15;1.63;;;;;;;;;;2075411;28;20276;-53
2022/05/12 02:35:10;;;;;;;2.38;2.00;;;;;;;;;;2081253;28;20196;-52
2022/05/12 02:36:10;;;;;;;3.47;1.98;;;;;;;;;;2082007;28;20172;-50
2022/05/12 02:37:11;;;;;;;1.80;1.70;;;;;;;;;;2074046;28;20512;-53
2022/05/12 02:38:11;;;;;;;1.63;1.50;;;;;;;;;;2073278;28;20163;-49
2022/05/12 02:39:12;;;;;;;1.77;1.60;;;;;;;;;;2073636;28;20682;-50
2022/05/12 02:40:14;;;;;;;2.17;1.98;;;;;;;;;;2073755;28;20232;-50
2022/05/12 02:41:14;;;;;;;1.98;1.70;;;;;;;;;;2065829;28;20209;-51
2022/05/12 02:42:14;;;;;;;3.45;1.70;;;;;;;;;;2074478;28;20177;-52
2022/05/12 02:43:24;;;;;;;4.60;2.08;;;;;;;;;;2065596;28;20185;-50
2022/05/12 02:44:24;;;;;;;1.98;1.88;;;;;;;;;;2066802;28;20162;-50
2022/05/12 02:45:26;;;;;;;2.38;1.85;;;;;;;;;;2070214;28;20217;-50
2022/05/12 02:46:27;;;;;;;3.17;1.67;;;;;;;;;;2065140;28;20252;-50
2022/05/12 02:47:27;;;;;;;2.42;1.77;;;;;;;;;;2064680;28;20601;-51
2022/05/12 02:48:29;;;;;;;4.22;1.77;;;;;;;;;;2065947;28;20186;-50
2022/05/12 02:49:29;;;;;;;5.28;2.08;;;;;;;;;;2074004;28;20207;-51
2022/05/12 02:50:29;;;;;;;3.40;1.95;;;;;;;;;;2073937;28;20180;-51
2022/05/12 02:51:30;;;;;;;3.20;1.90;;;;;;;;;;2065257;28;20252;-52
2022/05/12 02:52:30;;;;;;;3.70;2.08;;;;;;;;;;2074392;28;20260;-52
2022/05/12 02:53:30;;;;;;;4.35;1.83;;;;;;;;;;2074227;28;20173;-50
2022/05/12 02:54:30;;;;;;;2.40;2.20;;;;;;;;;;2073970;28;20587;-53
2022/05/12 02:55:31;;;;;;;4.20;1.70;;;;;;;;;;2073994;28;20189;-50
2022/05/12 02:56:31;;;;;;;3.53;1.90;;;;;;;;;;2074058;28;20201;-52
2022/05/12 02:57:32;;;;;;;2.08;1.88;;;;;;;;;;2074305;28;20192;-51
2022/05/12 02:58:33;;;;;;;3.50;2.00;;;;;;;;;;2074512;28;20187;-51
2022/05/12 02:59:33;;;;;;;2.45;1.90;;;;;;;;;;2074391;28;20618;-51
2022/05/12 03:00:33;;;;;;;3.80;2.40;;;;;;;;;;2073885;28;20185;-51
2022/05/12 03:01:34;;;;;;;3.08;1.90;;;;;;;;;;2074609;28;20169;-52
2022/05/12 03:02:34;;;;;;;4.15;2.25;;;;;;;;;;2069547;28;20185;-53
2022/05/12 03:03:34;;;;;;;4.68;2.22;;;;;;;;;;2074529;28;20180;-50
2022/05/12 03:04:35;;;;;;;4.38;2.33;;;;;;;;;;2073983;28;20216;-53
2022/05/12 03:05:35;;;;;;;5.30;2.30;;;;;;;;;;2073662;28;20630;-51
2022/05/12 03:06:37;;;;;;;4.72;2.55;;;;;;;;;;2074324;28;20179;-50
2022/05/12 03:07:38;;;;;;;3.40;2.25;;;;;;;;;;2074314;28;20172;-53
2022/05/12 03:08:42;;;;;;;3.22;2.20;;;;;;;;;;2065901;28;20218;-51
2022/05/12 03:09:43;;;;;;;3.15;2.25;;;;;;;;;;2065971;28;20741;-49
2022/05/12 03:10:43;;;;;;;5.45;2.40;;;;;;;;;;2065209;28;20174;-50
2022/05/12 03:11:44;;;;;;;3.40;2.35;;;;;;;;;;2065982;28;20604;-51
2022/05/12 03:12:44;;;;;;;3.22;2.03;;;;;;;;;;2075157;28;20196;-54
2022/05/12 03:13:44;;;;;;;3.90;2.20;;;;;;;;;;2074474;28;20176;-51
2022/05/12 03:14:45;;;;;;;6.10;2.28;;;;;;;;;;2073515;28;20165;-51
2022/05/12 03:15:45;;;;;;;5.50;2.22;;;;;;;;;;2073748;28;20343;-50
2022/05/12 03:16:45;;;;;;;5.05;2.20;;;;;;;;;;2073861;28;20185;-53
2022/05/12 03:17:46;;;;;;;3.17;2.00;;;;;;;;;;2073479;28;20181;-50
2022/05/12 03:18:47;;;;;;;2.08;1.95;;;;;;;;;;2073812;28;20160;-51
2022/05/12 03:19:48;;;;;;;6.22;2.33;;;;;;;;;;2073752;28;20161;-51
2022/05/12 03:20:48;;;;;;;4.15;2.25;;;;;;;;;;2073347;28;20177;-50
2022/05/12 03:21:49;;;;;;;3.90;2.33;;;;;;;;;;2074040;28;20177;-50
2022/05/12 03:22:49;;;;;;;3.28;2.40;;;;;;;;;;2073679;28;20180;-52
2022/05/12 03:23:50;;;;;;;2.42;2.22;;;;;;;;;;2064991;28;20169;-53
2022/05/12 03:24:50;;;;;;;3.58;2.00;;;;;;;;;;2056413;28;20211;-50
2022/05/12 03:25:52;;;;;;;3.75;2.20;;;;;;;;;;2065107;28;20166;-51
2022/05/12 03:26:52;;;;;;;3.10;2.33;;;;;;;;;;2073804;28;20172;-50
2022/05/12 03:27:52;;;;;;;3.08;2.35;;;;;;;;;;2070179;28;20272;-54
2022/05/12 03:28:53;;;;;;;5.10;2.63;;;;;;;;;;2069429;28;20291;-54
2022/05/12 03:29:53;;;;;;;5.15;2.28;;;;;;;;;;2068924;28;20174;-50
2022/05/12 03:30:53;;;;;;;2.60;2.40;;;;;;;;;;2073551;28;20292;-52
2022/05/12 03:31:54;;;;;;;2.95;1.92;;;;;;;;;;2063236;28;20174;-49
2022/05/12 03:32:54;;;;;;;2.10;1.90;;;;;;;;;;2070015;28;20216;-48
2022/05/12 03:33:55;;;;;;;2.90;2.65;;;;;;;;;;2072470;28;20173;-51
2022/05/12 03:34:55;;;;;;;2.38;2.17;;;;;;;;;;2075404;28;20173;-53
2022/05/12 03:35:56;;;;;;;3.90;2.15;;;;;;;;;;2077333;28;20177;-51
2022/05/12 03:36:56;;;;;;;3.28;2.28;;;;;;;;;;2072716;28;20189;-52
2022/05/12 03:37:57;;;;;;;3.47;2.30;;;;;;;;;;2072657;28;20200;-50
2022/05/12 03:38:57;;;;;;;4.93;2.20;;;;;;;;;;2075952;28;20173;-53
2022/05/12 03:39:57;;;;;;;5.57;2.33;;;;;;;;;;2068593;28;20192;-50
2022/05/12 03:40:58;;;;;;;6.65;2.53;;;;;;;;;;2065582;28;20238;-48
2022/05/12 03:41:58;;;;;;;2.03;1.92;;;;;;;;;;2075570;28;20192;-54
2022/05/12 03:42:58;;;;;;;2.25;1.90;;;;;;;;;;2062061;28;20201;-52
2022/05/12 03:45:21;;;;;;;4.10;2.42;;;;;;;;;;2073224;28;20220;-55
2022/05/12 03:46:22;;;;;;;5.43;2.35;;;;;;;;;;2065889;28;20178;-53
2022/05/12 03:47:24;;;;;;;3.50;2.35;;;;;;;;;;2066911;28;20245;-54
2022/05/12 03:48:24;;;;;;;4.10;2.03;;;;;;;;;;2073132;28;20169;-50
2022/05/12 03:49:25;;;;;;;3.30;2.38;;;;;;;;;;2073614;28;20209;-56
2022/05/12 03:50:26;;;;;;;5.82;2.35;;;;;;;;;;2071511;28;20181;-54
2022/05/12 03:51:26;;;;;;;2.33;2.13;;;;;;;;;;2067873;28;20261;-54
2022/05/12 03:52:27;;;;;;;3.70;2.25;;;;;;;;;;2071023;28;20256;-52
2022/05/12 03:53:27;;;;;;;4.78;2.30;;;;;;;;;;2062506;28;20240;-50
2022/05/12 03:54:28;;;;;;;4.28;2.70;;;;;;;;;;2053864;28;20262;-54
2022/05/12 03:55:29;;;;;;;2.53;2.35;;;;;;;;;;2065338;28;20225;-53
2022/05/12 03:56:30;;;;;;;4.35;2.30;;;;;;;;;;2073569;28;20223;-53
2022/05/12 03:57:31;;;;;;;2.65;2.42;;;;;;;;;;2081430;28;20178;-49
2022/05/12 03:58:32;;;;;;;2.08;1.90;;;;;;;;;;2075222;28;20192;-51
2022/05/12 03:59:32;;;;;;;2.40;2.10;;;;;;;;;;2066660;28;20193;-52
2022/05/12 04:00:34;;;;;;;2.95;2.38;;;;;;;;;;2061443;28;20201;-49
2022/05/12 04:01:35;;;;;;;2.42;2.08;;;;;;;;;;2066129;28;20198;-51
2022/05/12 04:02:35;;;;;;;6.05;2.90;;;;;;;;;;2069962;28;20174;-50
2022/05/12 04:03:37;;;;;;;4.95;2.25;;;;;;;;;;2072932;28;20224;-54
2022/05/12 04:04:37;;;;;;;2.17;2.00;;;;;;;;;;2072495;28;20197;-52
2022/05/12 04:05:37;;;;;;;3.13;2.13;;;;;;;;;;2073350;28;20253;-52
2022/05/12 04:06:37;;;;;;;4.18;2.00;;;;;;;;;;2072424;28;20197;-53
2022/05/12 04:07:42;;;;;;;5.93;2.63;;;;;;;;;;2073621;28;20177;-52
2022/05/12 04:08:42;;;;;;;2.78;2.55;;;;;;;;;;2072922;28;20208;-55
2022/05/12 04:09:43;;;;;;;5.53;2.40;;;;;;;;;;2072310;28;20193;-55
2022/05/12 04:10:43;;;;;;;2.25;2.05;;;;;;;;;;2077645;28;20240;-51
2022/05/12 04:11:43;;;;;;;3.08;2.67;;;;;;;;;;2075202;28;20173;-50
2022/05/12 04:12:43;;;;;;;3.85;2.45;;;;;;;;;;2077770;28;20178;-55
2022/05/12 04:13:44;;;;;;;3.78;2.50;;;;;;;;;;2073698;28;20217;-55
2022/05/12 04:14:44;;;;;;;3.03;2.13;;;;;;;;;;2080044;28;20160;-52
2022/05/12 04:15:45;;;;;;;4.70;2.50;;;;;;;;;;2080182;28;20243;-54
2022/05/12 04:16:45;;;;;;;3.53;2.30;;;;;;;;;;2079392;28;20184;-57
2022/05/12 04:17:53;;;;;;;2.25;2.00;;;;;;;;;;2079573;28;20169;-49
2022/05/12 04:18:54;;;;;;;2.10;2.00;;;;;;;;;;2079665;28;20169;-54
2022/05/12 04:19:54;;;;;;;3.97;2.55;;;;;;;;;;2087075;28;20488;-55
2022/05/12 04:20:54;;;;;;;2.70;2.15;;;;;;;;;;2084719;28;20172;-52
2022/05/12 04:21:55;;;;;;;4.15;2.30;;;;;;;;;;2072296;28;20208;-55
2022/05/12 04:22:55;;;;;;;2.47;2.28;;;;;;;;;;2077667;28;20308;-52
2022/05/12 04:23:56;;;;;;;3.92;2.45;;;;;;;;;;2077672;28;20215;-51
2022/05/12 04:24:56;;;;;;;4.45;2.33;;;;;;;;;;2076912;28;20262;-54
2022/05/12 04:25:56;;;;;;;4.95;2.65;;;;;;;;;;2076651;28;20171;-56
2022/05/12 04:26:57;;;;;;;4.38;2.75;;;;;;;;;;2075903;28;20250;-51
2022/05/12 04:27:58;;;;;;;4.05;2.58;;;;;;;;;;2074815;28;20264;-52
2022/05/12 04:28:58;;;;;;;4.47;2.35;;;;;;;;;;2074747;28;20209;-51
2022/05/12 04:29:58;;;;;;;4.18;2.50;;;;;;;;;;2073751;28;20197;-51
2022/05/12 04:30:59;;;;;;;3.55;1.90;;;;;;;;;;2075606;28;20603;-52
2022/05/12 04:31:59;;;;;;;3.42;2.45;;;;;;;;;;2075211;28;20518;-49
2022/05/12 04:35:11;;;;;;;3.97;2.67;;;;;;;;;;2074941;28;20181;-51
2022/05/12 04:35:39;;;;;;;3.90;2.35;;;;;;;;;;2074601;28;20332;-50
2022/05/12 04:36:39;;;;;;;5.90;2.30;;;;;;;;;;2075775;28;20157;-51
2022/05/12 04:37:44;;;;;;;4.47;2.30;;;;;;;;;;2076514;28;20179;-52
2022/05/12 04:38:44;;;;;;;4.38;2.45;;;;;;;;;;2075483;28;20263;-52
2022/05/12 04:39:45;;;;;;;3.42;2.50;;;;;;;;;;2074913;28;20684;-53
2022/05/12 04:40:45;;;;;;;4.13;2.85;;;;;;;;;;2075363;28;20191;-50
2022/05/12 04:41:45;;;;;;;3.85;2.20;;;;;;;;;;2075228;28;20177;-51
2022/05/12 04:42:50;;;;;;;2.97;2.60;;;;;;;;;;2064373;28;20177;-54
2022/05/12 04:43:50;;;;;;;4.80;2.35;;;;;;;;;;2065549;28;20686;-54
2022/05/12 04:44:50;;;;;;;4.75;2.53;;;;;;;;;;2075479;28;20196;-53
2022/05/12 04:45:50;;;;;;;6.00;3.05;;;;;;;;;;2067098;28;20527;-52
2022/05/12 04:46:51;;;;;;;5.28;2.53;;;;;;;;;;2066253;28;20254;-54
2022/05/12 04:47:51;;;;;;;3.92;2.55;;;;;;;;;;2075560;28;20255;-50
2022/05/12 04:48:52;;;;;;;7.47;2.70;;;;;;;;;;2075674;28;20263;-50
2022/05/12 04:49:52;;;;;;;3.95;3.05;;;;;;;;;;2076542;28;20253;-50
2022/05/12 04:50:53;;;;;;;5.60;2.50;;;;;;;;;;2075905;28;20177;-50
2022/05/12 04:51:53;;;;;;;5.55;2.65;;;;;;;;;;2075930;28;20181;-49
2022/05/12 04:52:53;;;;;;;3.08;2.40;;;;;;;;;;2074992;28;20173;-51
2022/05/12 04:53:54;;;;;;;4.82;2.47;;;;;;;;;;2074296;28;20181;-51
2022/05/12 04:54:54;;;;;;;3.25;2.47;;;;;;;;;;2065622;28;20225;-53
2022/05/12 04:55:55;;;;;;;4.10;2.45;;;;;;;;;;2065874;28;20185;-54
2022/05/12 04:56:56;;;;;;;5.43;2.67;;;;;;;;;;2074413;28;20186;-52
2022/05/12 04:57:57;;;;;;;4.28;2.60;;;;;;;;;;2074963;28;20176;-54
2022/05/12 04:58:57;;;;;;;7.28;3.22;;;;;;;;;;2074940;28;20567;-49
2022/05/12 04:59:57;;;;;;;4.50;2.85;;;;;;;;;;2074807;28;20184;-51
2022/05/12 05:00:57;;;;;;;2.97;2.58;;;;;;;;;;2074579;28;20189;-50
2022/05/12 05:01:58;;;;;;;5.80;2.97;;;;;;;;;;2065608;28;20193;-51
2022/05/12 05:02:58;;;;;;;4.38;2.50;;;;;;;;;;2066129;28;20181;-51
2022/05/12 05:04:00;;;;;;;4.63;3.13;;;;;;;;;;2074382;28;20597;-50
2022/05/12 05:05:00;;;;;;;4.50;2.67;;;;;;;;;;2066199;28;20509;-52
2022/05/12 05:06:01;;;;;;;3.13;2.60;;;;;;;;;;2062647;28;20230;-52
2022/05/12 05:07:01;;;;;;;3.92;3.10;;;;;;;;;;2064699;28;20849;-52
2022/05/12 05:08:01;;;;;;;4.38;2.95;;;;;;;;;;2071784;28;20201;-54
2022/05/12 05:09:02;;;;;;;3.33;2.40;;;;;;;;;;2072869;28;20680;-55
2022/05/12 05:10:03;;;;;;;3.95;2.80;;;;;;;;;;2078532;28;20659;-52
2022/05/12 05:11:06;;;;;;;4.32;2.72;;;;;;;;;;2074060;28;20181;-54
2022/05/12 05:12:07;;;;;;;3.42;2.85;;;;;;;;;;2066966;28;20193;-51
2022/05/12 05:13:08;;;;;;;4.05;2.92;;;;;;;;;;2079462;28;20177;-54
2022/05/12 05:14:08;;;;;;;5.07;2.60;;;;;;;;;;2083285;28;20179;-56
2022/05/12 05:15:10;;;;;;;5.93;3.63;;;;;;;;;;2083085;28;20271;-53
2022/05/12 05:16:11;;;;;;;4.47;3.10;;;;;;;;;;2073542;28;20169;-53
2022/05/12 05:17:11;;;;;;;4.55;3.17;;;;;;;;;;2074479;28;20562;-52
2022/05/12 05:18:12;;;;;;;4.28;2.47;;;;;;;;;;2075270;28;20173;-54
2022/05/12 05:19:13;;;;;;;3.00;2.67;;;;;;;;;;2074072;28;20173;-51
2022/05/12 05:20:16;;;;;;;6.90;3.22;;;;;;;;;;2074527;28;20181;-52
2022/05/12 05:21:17;;;;;;;4.18;2.90;;;;;;;;;;2073308;28;20208;-53
2022/05/12 05:22:17;;;;;;;5.80;3.20;;;;;;;;;;2076725;28;20184;-51
2022/05/12 05:23:21;;;;;;;5.40;2.90;;;;;;;;;;2074328;28;20181;-56
2022/05/12 05:24:21;;;;;;;4.07;2.53;;;;;;;;;;2074471;28;20648;-52
2022/05/12 05:25:22;;;;;;;3.20;2.85;;;;;;;;;;2075652;28;20217;-51
2022/05/12 05:26:22;;;;;;;4.35;3.00;;;;;;;;;;2081247;28;20174;-52
2022/05/12 05:27:22;;;;;;;3.80;3.03;;;;;;;;;;2073803;28;20173;-54
2022/05/12 05:28:23;;;;;;;4.80;2.80;;;;;;;;;;2071618;28;20268;-54
2022/05/12 05:29:23;;;;;;;5.78;2.97;;;;;;;;;;2082605;28;20200;-53
2022/05/12 05:30:24;;;;;;;4.20;2.83;;;;;;;;;;2076075;28;20705;-54
2022/05/12 05:31:24;;;;;;;3.50;2.85;;;;;;;;;;2071383;28;20647;-52
2022/05/12 05:32:26;;;;;;;4.38;3.40;;;;;;;;;;2068972;28;20176;-64
2022/05/12 05:33:26;;;;;;;6.15;2.85;;;;;;;;;;2074611;28;20189;-64
2022/05/12 05:34:27;;;;;;;2.97;2.60;;;;;;;;;;2077532;28;20256;-53
2022/05/12 05:35:27;;;;;;;7.43;3.50;;;;;;;;;;2071964;28;20252;-56
2022/05/12 05:36:28;;;;;;;5.95;3.50;;;;;;;;;;2086085;22;20212;-56
2022/05/12 05:37:28;;;;;;;6.05;3.00;;;;;;;;;;2079014;28;20187;-54
2022/05/12 05:38:28;;;;;;;3.47;2.60;;;;;;;;;;2080399;28;20200;-54
2022/05/12 05:39:29;;;;;;;9.80;3.47;;;;;;;;;;2081386;28;21479;-59
2022/05/12 05:40:30;;;;;;;7.30;3.50;;;;;;;;;;2085795;28;20596;-58
2022/05/12 05:41:30;;;;;;;2.80;2.60;;;;;;;;;;2081946;28;20184;-53
2022/05/12 05:42:31;;;;;;;6.88;2.85;;;;;;;;;;2081876;28;20194;-56
2022/05/12 05:43:31;;;;;;;5.45;3.22;;;;;;;;;;2082128;28;20192;-55
2022/05/12 05:44:35;;;;;;;6.03;3.13;;;;;;;;;;2080853;28;20180;-59
2022/05/12 05:45:35;;;;;;;4.75;3.45;;;;;;;;;;2078261;28;20610;-57
2022/05/12 05:46:35;;;;;;;6.80;3.70;;;;;;;;;;2076298;28;20201;-60
2022/05/12 05:47:35;;;;;;;9.95;4.45;;;;;;;;;;2081878;28;20263;-54
2022/05/12 05:48:36;;;;;;;7.57;4.03;;;;;;;;;;2072163;28;20205;-60
2022/05/12 05:49:37;;;;;;;5.88;3.50;;;;;;;;;;2081099;28;20680;-57
2022/05/12 05:53:25;;;;;;;3.58;3.22;;;;;;;;;;2081796;28;20241;-54
2022/05/12 05:54:28;;;;;;;7.15;3.45;;;;;;;;;;2080247;28;20169;-54
2022/05/12 05:55:28;;;;;;;10.05;4.32;;;;;;;;;;2081989;28;20172;-54
2022/05/12 05:56:28;;;;;;;4.43;3.47;;;;;;;;;;2081882;28;20661;-59
2022/05/12 05:57:33;;;;;;;5.88;3.92;;;;;;;;;;2082017;28;20590;-55
2022/05/12 05:58:34;;;;;;;5.43;3.92;;;;;;;;;;2081867;28;20507;-58
2022/05/12 05:59:34;;;;;;;5.95;4.15;;;;;;;;;;2081600;28;20180;-55
2022/05/12 06:00:36;;;;;;;5.47;4.03;;;;;;;;;;2081887;28;20251;-59
2022/05/12 06:01:36;;;;;;;5.40;3.70;;;;;;;;;;2081760;28;20177;-54
2022/05/12 06:02:37;;;;;;;5.38;3.80;;;;;;;;;;2081678;28;20176;-55
2022/05/12 06:03:38;;;;;;;4.65;4.15;;;;;;;;;;2081821;28;20187;-55
2022/05/12 06:04:38;;;;;;;7.55;4.32;;;;;;;;;;2081625;28;20172;-55
2022/05/12 06:05:38;;;;;;;7.32;4.75;;;;;;;;;;2082112;28;20157;-50
2022/05/12 06:06:38;;;;;;;6.63;4.03;;;;;;;;;;2081822;28;20262;-53
2022/05/12 06:07:39;;;;;;;4.82;4.32;;;;;;;;;;2081791;28;20184;-55
2022/05/12 06:08:39;;;;;;;5.28;4.45;;;;;;;;;;2081924;28;20180;-56
2022/05/12 06:09:41;;;;;;;4.78;4.18;;;;;;;;;;2081784;28;20172;-53
2022/05/12 06:10:42;;;;;;;6.78;4.30;;;;;;;;;;2080659;28;20247;-57